Latest Coastal Weather Observations for Portland Harbour

IDS60701

Issued at 2:15 pm CST Tuesday 2 September 2014 (issued every 10 minutes, with the page automatically refreshed every 10 minutes)

About coastal observations | Map of coastal stations | Coastal observations for SA | Marine services | Other Formats
Station Details ID: 090192 Name: PORTLAND NTC AWS Lat: -38.34 Lon: 141.61 Height: 0.0 m
Data from the previous 72 hours. | See also: Recent months for locations in South Australia
Date/Time
CST
Temp

°C
Wind Pressure Rain
since 9am
mm
Weather Cloud Vis
km
Sea
Height
m
Swell
Dir
 
Speed
knots
Gust
knots
hPa Trend Height
m
Period
s
Dir
02/02:00pm 12.8 S 12 17 1022.7 - - - - - - - - -
02/01:30pm 12.9 S 13 19 1022.7 - - - - - - - - -
02/01:00pm 12.5 S 12 17 1022.6 - - - - - - - - -
02/12:30pm 12.5 S 11 18 1022.8 - - - - - - - - -
02/12:00pm 12.4 S 14 20 1022.7 - - - - - - - - -
02/11:30am 12.6 S 14 20 1022.9 - - - - - - - - -
02/11:00am 12.6 S 13 20 1023.0 - - - - - - - - -
02/10:30am 12.5 S 14 18 1022.9 - - - - - - - - -
02/10:00am 12.5 S 14 18 1022.9 - - - - - - - - -
02/09:30am 12.4 S 14 19 1022.6 - - - - - - - - -
02/09:00am 12.4 S 14 20 1022.4 - - - - - - - - -
02/08:30am 12.2 S 12 16 1022.1 - - - - - - - - -
02/08:00am 11.8 S 13 18 1021.7 - - - - - - - - -
02/07:30am 11.7 S 12 17 1021.1 - - - - - - - - -
02/07:00am 11.6 S 14 20 1020.6 - - - - - - - - -
02/06:30am 11.6 S 13 18 1020.1 - - - - - - - - -
02/06:00am 11.4 S 11 16 1019.6 - - - - - - - - -
02/05:30am 11.5 S 10 16 1019.1 - - - - - - - - -
02/05:00am 11.4 S 10 14 1018.7 - - - - - - - - -
02/04:30am 11.4 S 11 15 1018.1 - - - - - - - - -
02/04:00am 11.5 S 13 18 1017.5 - - - - - - - - -
02/03:30am 11.8 S 14 18 1017.2 - - - - - - - - -
02/03:00am 11.8 S 11 17 1017.0 - - - - - - - - -
02/02:30am 11.8 S 11 15 1016.6 - - - - - - - - -
02/02:00am 10.6 SW 4 7 1016.4 - - - - - - - - -
02/01:30am 10.5 SSW 5 8 1016.2 - - - - - - - - -
02/01:00am 10.5 S 9 12 1016.3 - - - - - - - - -
02/12:30am 11.1 SSW 10 19 1016.0 - - - - - - - - -
02/12:00am 10.7 SW 6 9 1015.6 - - - - - - - - -
 
Date/Time
CST
Temp

°C
Wind Pressure Rain
since 9am
mm
Weather Cloud Vis
km
Sea
Height
m
Swell
Dir
 
Speed
knots
Gust
knots
hPa Trend Height
m
Period
s
Dir
01/11:30pm 10.7 S 10 23 1015.4 - - - - - - - - -
01/11:21pm 10.9 S 15 23 1015.3 - - - - - - - - -
01/11:00pm 10.8 SW 6 8 1015.0 - - - - - - - - -
01/10:30pm 11.3 SW 7 9 1014.9 - - - - - - - - -
01/10:00pm 11.5 SSW 9 11 1014.6 - - - - - - - - -
01/09:30pm 11.7 SSW 7 10 1014.4 - - - - - - - - -
01/09:00pm 11.9 SW 8 12 1014.2 - - - - - - - - -
01/08:30pm 11.9 SSW 7 11 1013.9 - - - - - - - - -
01/08:00pm 11.3 WSW 5 10 1013.4 - - - - - - - - -
01/07:30pm 11.4 WSW 6 11 1013.3 - - - - - - - - -
01/07:00pm 11.6 WSW 6 8 1012.9 - - - - - - - - -
01/06:30pm 11.7 SW 7 10 1012.5 - - - - - - - - -
01/06:00pm 11.9 SW 8 11 1012.1 - - - - - - - - -
01/05:30pm 12.4 SW 9 12 1011.7 - - - - - - - - -
01/05:00pm 12.7 SW 12 17 1011.2 - - - - - - - - -
01/04:30pm 12.9 SW 11 16 1010.9 - - - - - - - - -
01/04:00pm 12.8 SW 13 17 1010.6 - - - - - - - - -
01/03:30pm 13.0 SW 13 17 1010.3 - - - - - - - - -
01/03:00pm 13.4 SW 13 20 1009.9 - - - - - - - - -
01/02:30pm 13.5 SW 12 18 1009.6 - - - - - - - - -
01/02:00pm 13.3 SW 14 18 1009.5 - - - - - - - - -
01/01:30pm 13.4 SW 14 19 1009.4 - - - - - - - - -
01/01:00pm 13.2 SW 13 17 1009.4 - - - - - - - - -
01/12:30pm 13.3 SW 9 14 1009.5 - - - - - - - - -
01/12:00pm 13.1 SW 11 16 1009.7 - - - - - - - - -
01/11:30am 13.3 SW 10 17 1009.3 - - - - - - - - -
01/11:00am 13.2 SW 11 17 1009.8 - - - - - - - - -
01/10:30am 12.3 WSW 8 11 1009.7 - - - - - - - - -
01/10:00am 12.8 SW 12 18 1009.8 - - - - - - - - -
01/09:30am 12.7 SW 11 17 1009.5 - - - - - - - - -
01/09:00am 13.0 SW 10 13 1009.3 - - - - - - - - -
01/08:30am 12.8 WSW 9 13 1009.2 - - - - - - - - -
01/08:00am 12.4 WSW 5 7 1008.7 - - - - - - - - -
01/07:30am 11.8 SW 5 7 1008.4 - - - - - - - - -
01/07:00am 11.9 SW 6 8 1008.2 - - - - - - - - -
01/06:30am 12.0 SW 8 13 1008.1 - - - - - - - - -
01/06:00am 11.9 SW 7 10 1007.5 - - - - - - - - -
01/05:30am 11.5 W 3 4 1007.2 - - - - - - - - -
01/05:00am 11.6 NW 6 8 1006.7 - - - - - - - - -
01/04:30am 11.6 NW 6 10 1006.6 - - - - - - - - -
01/04:00am 11.6 NW 6 8 1006.4 - - - - - - - - -
01/03:30am 11.7 WNW 9 14 1006.6 - - - - - - - - -
01/03:00am 11.8 W 12 18 1007.2 - - - - - - - - -
01/02:30am 12.9 NW 10 14 1006.8 - - - - - - - - -
01/02:00am 12.8 NW 12 19 1007.1 - - - - - - - - -
01/01:30am 12.7 W 10 15 1006.4 - - - - - - - - -
01/01:00am 12.9 WNW 5 7 1006.7 - - - - - - - - -
01/12:30am 13.7 NNW 7 10 1007.4 - - - - - - - - -
01/12:00am 13.6 WNW 1 5 1006.6 - - - - - - - - -
 
Date/Time
CST
Temp

°C
Wind Pressure Rain
since 9am
mm
Weather Cloud Vis
km
Sea
Height
m
Swell
Dir
 
Speed
knots
Gust
knots
hPa Trend Height
m
Period
s
Dir
31/11:30pm 13.8 W 4 6 1006.9 - - - - - - - - -
31/11:00pm 14.2 WSW 4 5 1006.8 - - - - - - - - -
31/10:30pm 14.6 N 4 7 1007.2 - - - - - - - - -
31/10:00pm 14.5 NNE 4 7 1006.9 - - - - - - - - -
31/09:30pm 14.8 NNW 3 5 1008.3 - - - - - - - - -
31/09:00pm 15.1 N 4 5 1008.4 - - - - - - - - -
31/08:30pm 15.3 W 7 11 1008.7 - - - - - - - - -
31/08:00pm 15.8 W 12 18 1009.4 - - - - - - - - -
31/07:30pm 16.0 W 4 6 1009.0 - - - - - - - - -
31/07:00pm 16.7 WSW 3 6 1009.1 - - - - - - - - -
31/06:30pm 17.2 WSW 7 9 1009.3 - - - - - - - - -
31/06:00pm 16.1 NNE 4 6 1008.2 - - - - - - - - -
31/05:30pm 19.0 NNW 7 10 1008.4 - - - - - - - - -
31/05:00pm 19.5 NNW 8 12 1008.7 - - - - - - - - -
31/04:30pm 20.0 NNW 8 16 1009.0 - - - - - - - - -
31/04:00pm 19.5 NNW 8 14 1009.2 - - - - - - - - -
31/03:30pm 19.7 NNW 10 14 1009.1 - - - - - - - - -
31/03:00pm 18.2 N 12 14 1009.1 - - - - - - - - -
31/02:30pm 18.9 N 12 15 1009.5 - - - - - - - - -
31/02:00pm 19.5 N 14 19 1009.7 - - - - - - - - -
31/01:30pm 19.9 N 17 20 1010.0 - - - - - - - - -
31/01:00pm 19.2 N 12 17 1010.5 - - - - - - - - -
31/12:30pm 18.0 N 12 16 1011.2 - - - - - - - - -
31/12:00pm 17.7 N 12 14 1011.6 - - - - - - - - -
31/11:30am 17.3 N 11 13 1012.3 - - - - - - - - -
31/11:00am 16.8 N 12 15 1012.9 - - - - - - - - -
31/10:30am 16.3 N 11 13 1013.0 - - - - - - - - -
31/10:00am 15.7 N 13 18 1013.4 - - - - - - - - -
31/09:30am 15.4 N 14 16 1013.8 - - - - - - - - -
31/09:00am 15.0 N 12 15 1014.4 - - - - - - - - -
31/08:30am 14.4 N 12 14 1014.5 - - - - - - - - -
31/08:00am 14.3 N 12 15 1014.6 - - - - - - - - -
31/07:30am 14.6 N 12 14 1014.8 - - - - - - - - -
31/07:00am 14.1 N 9 11 1014.9 - - - - - - - - -
31/06:30am 13.0 N 5 6 1015.0 - - - - - - - - -
31/06:00am 12.8 NNW 6 9 1015.0 - - - - - - - - -
31/05:30am 13.4 N 6 7 1014.9 - - - - - - - - -
31/05:00am 13.7 N 11 14 1015.0 - - - - - - - - -
31/04:30am 13.9 N 11 13 1015.1 - - - - - - - - -
31/04:00am 13.4 N 8 10 1015.0 - - - - - - - - -
31/03:30am 13.1 NNW 4 7 1015.4 - - - - - - - - -
31/03:00am 13.8 N 6 9 1015.5 - - - - - - - - -
31/02:30am 13.3 NNW 2 6 1015.9 - - - - - - - - -
31/02:00am 13.1 NNW 2 4 1016.2 - - - - - - - - -
31/01:30am 13.7 NNW 3 6 1016.7 - - - - - - - - -
31/01:00am 13.0 NW 2 4 1016.9 - - - - - - - - -
31/12:30am 11.4 SW 1 3 1017.1 - - - - - - - - -
31/12:00am 11.6 SSW 1 2 1017.2 - - - - - - - - -
 
Date/Time
CST
Temp

°C
Wind Pressure Rain
since 9am
mm
Weather Cloud Vis
km
Sea
Height
m
Swell
Dir
 
Speed
knots
Gust
knots
hPa Trend Height
m
Period
s
Dir
30/11:30pm 12.1 E 1 3 1017.4 - - - - - - - - -
30/11:00pm 11.4 WSW 1 2 1018.0 - - - - - - - - -
30/10:30pm 11.1 WSW 4 5 1018.4 - - - - - - - - -
30/10:00pm 10.9 SW 3 4 1018.8 - - - - - - - - -
30/09:30pm 11.9 NW 1 2 1019.0 - - - - - - - - -
30/09:00pm 11.7 SW 1 3 1019.2 - - - - - - - - -
30/08:30pm 12.5 WSW 2 2 1019.3 - - - - - - - - -
30/08:00pm 12.2 W 3 5 1019.4 - - - - - - - - -
30/07:30pm 12.9 SW 2 3 1019.6 - - - - - - - - -
30/07:00pm 13.8 CALM 0 0 1019.6 - - - - - - - - -
30/06:30pm 14.0 CALM 0 1 1019.7 - - - - - - - - -
30/06:00pm 14.2 ENE 1 1 1019.7 - - - - - - - - -
30/05:30pm 14.3 ENE 3 3 1019.7 - - - - - - - - -
30/05:00pm 14.3 E 4 4 1019.6 - - - - - - - - -
30/04:30pm 14.4 E 3 4 1019.7 - - - - - - - - -
30/04:00pm 14.5 E 3 4 1019.7 - - - - - - - - -
30/03:30pm 14.7 E 4 5 1019.9 - - - - - - - - -
30/03:00pm 14.6 ESE 4 5 1020.0 - - - - - - - - -
30/02:30pm 14.2 ESE 5 6 1020.2 - - - - - - - - -
30/02:00pm 14.0 ESE 6 7 1020.4 - - - - - - - - -

Other Formats:

Comma delimited format used in spreadsheet applications
http://www.bom.gov.au/fwo/IDS60701/IDS60701.95826.axf

JavaScript Object Notation format (JSON) in row-major order
http://www.bom.gov.au/fwo/IDS60701/IDS60701.95826.json